Belmont, California
Current Conditions -  °F | °C
As of 9:30 PM on Sunday 21 Dec 2014 (Local Time) from KSQL Reporting Station
Broken Clouds Broken Clouds  
Wind Chill: 57°   Ceiling: 900
Heat Index: 57°   Visibility: 10mi
Dew Point: 55°   Wind: 3mph
Humidity: 94%   Direction: 200°SSW
Pressure: 30.31"   Gusts: NA
Location:  37.52°N, 122.27°W
Report Text: KSQL 220530Z AUTO 20003KT 10SM BKN009 14/13 A3031 RMK AO2
Loading
Personal Weather Stations






























Interactive Weather Map New forecast layout! Learn more

10-Day Weather Forecast

Advertisements
Track Severe Weather on mobile